Página principal
METAR-TAF:

METAR-TAF

Aeroportos :

Aeroporto de Cairns

Cairns, Austrália

latitude: 16-53S, longitude: 145-45E, altura: 3 m

Observação actual do tempo

O boletim foi feito há 23 minutos, às 00:00 UTC
Vento 13 kt de su-sudeste
Temperatura 25°C
Humidade 74%
Pressão 1017 hPa
Visibilidade 10 km ou mais
Nuvens dispersasa uma altura de 2400 ft

METAR: YBCS 260000Z 15013KT 9999 SCT024 25/20 Q1017

Hora: 10:23 (00:23 UTC)

Previsão

O boletim foi feito há 1 hora e 12 minutos, às 23:11 UTC
Previsão válida de 26 às 00 UTC a 26 às 24 UTC
Vento 16 kt de sudeste
Visibilidade 10 km ou mais
Nuvens dispersasa uma altura de 2500 ft
A partir de 26 às 0800 UTC
Vento 10 kt de sudeste
Visibilidade: 4000 m
Nuvens dispersasa uma altura de 2500 ft
Nuvens fragmentadasa uma altura de 4500 ft
Nuvens fragmentadasa uma altura de 1800 ft
aguaceiros fracos de chuva, aguaceiros de chuva

TAF: YBCS 252311Z 2600/2624 13016KT 9999 SCT025 FM260800 14010KT 9999 -SHRA SCT025 BKN045 INTER 2612/2624 4000 SHRA BKN018

Observações e previsões do tempo de mais de 4000 aeroportos (mensagens METAR e TAF).

As estações disponíveis são os pontos amarelos e vermelhos sobre o mapa.

Mova o rato sobre o mapa para ver o nome da estação.

Depois clique no ponto para visualizar as observações e previsões meteorológicas.

Para alterar o mapa : clique nos botões verdes com uma cruz preta para aumentar o zoom; no botão verde com uma pitada de zoom; ou nas setas verdes para mapas adjacentes.


METAR-TAF: